createdAt,value
2018-01-21T00:00:28.421Z,0.80
2018-01-21T00:02:56.216Z,0.70
2018-01-21T00:05:23.251Z,0.70
2018-01-21T00:07:49.551Z,0.70
2018-01-21T00:10:15.837Z,0.70
2018-01-21T00:12:42.112Z,0.60
2018-01-21T00:15:08.401Z,0.60
2018-01-21T00:17:34.684Z,0.50
2018-01-21T00:20:00.976Z,0.50
2018-01-21T00:22:39.477Z,0.40
2018-01-21T00:25:05.777Z,0.40
2018-01-21T00:27:32.800Z,0.40
2018-01-21T00:29:59.081Z,0.30
2018-01-21T00:32:25.364Z,0.40
2018-01-21T00:34:51.636Z,0.30
2018-01-21T00:37:17.945Z,0.40
2018-01-21T00:39:44.958Z,0.50
2018-01-21T00:42:11.244Z,0.40
2018-01-21T00:44:37.530Z,0.30
2018-01-21T00:47:03.815Z,0.40
2018-01-21T00:49:30.092Z,0.60
2018-01-21T00:51:56.379Z,0.50
2018-01-21T00:54:22.672Z,0.40
2018-01-21T00:56:49.696Z,0.40
2018-01-21T00:59:16.739Z,0.40
2018-01-21T01:01:43.053Z,0.30
2018-01-21T01:04:09.355Z,0.40
2018-01-21T01:06:35.652Z,0.30
2018-01-21T01:09:02.699Z,0.40
2018-01-21T01:11:29.010Z,0.40
2018-01-21T01:13:55.280Z,0.30
2018-01-21T01:16:21.581Z,0.20
2018-01-21T01:18:48.674Z,0.30
2018-01-21T01:21:14.944Z,0.20
2018-01-21T01:23:41.249Z,0.30
2018-01-21T01:26:07.533Z,0.40
2018-01-21T01:28:34.592Z,0.40
2018-01-21T01:31:00.879Z,0.40
2018-01-21T01:33:27.170Z,0.50
2018-01-21T01:35:53.447Z,0.60
2018-01-21T01:38:20.481Z,0.70
2018-01-21T01:40:46.773Z,0.70
2018-01-21T01:43:13.066Z,0.70
2018-01-21T01:45:40.096Z,0.70
2018-01-21T01:48:06.406Z,0.70
2018-01-21T01:50:32.729Z,0.80
2018-01-21T01:52:59.024Z,0.80
2018-01-21T01:55:25.313Z,0.70
2018-01-21T01:57:51.619Z,0.90
2018-01-21T02:00:17.929Z,1.00
2018-01-21T02:02:44.224Z,1.00
2018-01-21T02:05:10.530Z,0.90
2018-01-21T02:07:38.275Z,0.90
2018-01-21T02:10:04.566Z,0.90
2018-01-21T02:12:30.853Z,0.90
2018-01-21T02:14:57.889Z,0.90
2018-01-21T02:17:24.180Z,0.80
2018-01-21T02:19:50.491Z,0.70
2018-01-21T02:22:16.782Z,0.80
2018-01-21T02:24:43.078Z,0.80
2018-01-21T02:27:09.353Z,0.90
2018-01-21T02:29:35.657Z,0.90
2018-01-21T02:32:01.933Z,0.70
2018-01-21T02:34:28.956Z,0.80
2018-01-21T02:36:55.234Z,0.80
2018-01-21T02:39:21.525Z,0.70
2018-01-21T02:41:47.812Z,0.70
2018-01-21T02:44:14.115Z,0.80
2018-01-21T02:46:40.406Z,1.00
2018-01-21T02:49:07.459Z,0.90
2018-01-21T02:51:33.736Z,0.80
2018-01-21T02:54:00.050Z,0.80
2018-01-21T02:56:26.336Z,0.80
2018-01-21T02:58:52.616Z,0.90
2018-01-21T03:01:18.899Z,0.90
2018-01-21T03:03:45.199Z,1.10
2018-01-21T03:06:11.492Z,1.10
2018-01-21T03:08:37.782Z,1.10
2018-01-21T03:11:04.833Z,1.00
2018-01-21T03:13:31.109Z,0.90
2018-01-21T03:15:57.412Z,1.00
2018-01-21T03:18:23.704Z,1.00
2018-01-21T03:20:50.024Z,1.00
2018-01-21T03:23:16.300Z,0.80
2018-01-21T03:25:42.597Z,1.00
2018-01-21T03:28:08.892Z,1.00
2018-01-21T03:30:35.184Z,1.00
2018-01-21T03:33:02.209Z,1.10
2018-01-21T03:35:28.528Z,1.10
2018-01-21T03:37:54.807Z,1.10
2018-01-21T03:40:21.105Z,1.10
2018-01-21T03:42:47.396Z,1.20
2018-01-21T03:45:13.716Z,1.20
2018-01-21T03:47:40.021Z,1.20
2018-01-21T03:50:06.301Z,1.10
2018-01-21T03:52:32.585Z,1.00
2018-01-21T03:54:58.869Z,1.10
2018-01-21T03:57:25.164Z,1.10
2018-01-21T03:59:51.427Z,1.20
2018-01-21T04:02:19.207Z,1.00
2018-01-21T04:04:45.549Z,1.00
2018-01-21T04:07:12.570Z,1.20
2018-01-21T04:09:38.838Z,1.10
2018-01-21T04:12:05.115Z,1.20
2018-01-21T04:14:31.394Z,1.00
2018-01-21T04:16:58.425Z,1.00
2018-01-21T04:19:25.449Z,0.90
2018-01-21T04:21:51.745Z,0.90
2018-01-21T04:24:18.031Z,0.90
2018-01-21T04:26:44.373Z,0.80
2018-01-21T04:29:10.655Z,0.90
2018-01-21T04:31:36.946Z,1.00
2018-01-21T04:34:03.645Z,0.90
2018-01-21T04:36:31.418Z,0.80
2018-01-21T04:38:58.451Z,0.80
2018-01-21T04:41:24.738Z,0.80
2018-01-21T04:43:51.038Z,0.80
2018-01-21T04:46:18.101Z,1.00
2018-01-21T04:48:44.377Z,0.90
2018-01-21T04:51:10.656Z,1.00
2018-01-21T04:53:36.940Z,1.00
2018-01-21T04:56:03.288Z,1.00
2018-01-21T04:58:29.587Z,1.00
2018-01-21T05:00:55.876Z,1.10
2018-01-21T05:03:22.184Z,0.90
2018-01-21T05:05:48.448Z,1.00
2018-01-21T05:08:14.747Z,0.90
2018-01-21T05:10:41.785Z,0.80
2018-01-21T05:13:08.071Z,0.80
2018-01-21T05:15:34.352Z,0.90
2018-01-21T05:18:01.377Z,0.90
2018-01-21T05:20:27.665Z,0.80
2018-01-21T05:22:53.952Z,0.80
2018-01-21T05:25:20.965Z,0.80
2018-01-21T05:27:47.260Z,0.80
2018-01-21T05:30:13.523Z,0.90
2018-01-21T05:32:39.811Z,1.00
2018-01-21T05:35:06.093Z,1.00
2018-01-21T05:37:32.370Z,0.90
2018-01-21T05:39:58.674Z,1.00
2018-01-21T05:42:25.691Z,1.10
2018-01-21T05:44:51.999Z,1.10
2018-01-21T05:47:18.268Z,1.30
2018-01-21T05:49:45.300Z,1.10
2018-01-21T05:52:11.564Z,1.10
2018-01-21T05:54:38.617Z,1.20
2018-01-21T05:57:04.898Z,1.20
2018-01-21T05:59:31.169Z,1.10
2018-01-21T06:01:58.189Z,1.20
2018-01-21T06:04:25.258Z,1.20
2018-01-21T06:06:52.269Z,1.10
2018-01-21T06:09:18.556Z,1.10
2018-01-21T06:11:44.833Z,1.00
2018-01-21T06:14:11.115Z,1.00
2018-01-21T06:16:37.397Z,0.90
2018-01-21T06:19:03.871Z,0.90
2018-01-21T06:21:30.155Z,0.90
2018-01-21T06:23:57.911Z,0.70
2018-01-21T06:26:24.204Z,0.80
2018-01-21T06:28:50.497Z,0.80
2018-01-21T06:31:17.604Z,1.00
2018-01-21T06:33:43.879Z,0.90
2018-01-21T06:36:10.917Z,0.90
2018-01-21T06:38:37.956Z,0.90
2018-01-21T06:41:04.253Z,0.90
2018-01-21T06:43:30.536Z,0.90
2018-01-21T06:45:57.566Z,0.90
2018-01-21T06:48:23.846Z,0.90
2018-01-21T06:50:50.127Z,0.90
2018-01-21T06:53:16.474Z,0.90
2018-01-21T06:55:43.486Z,1.00
2018-01-21T06:58:09.785Z,1.00
2018-01-21T07:00:36.100Z,1.10
2018-01-21T07:03:02.393Z,1.00
2018-01-21T07:05:28.675Z,1.00
2018-01-21T07:07:54.948Z,1.10
2018-01-21T07:10:21.279Z,1.10
2018-01-21T07:12:47.560Z,0.90
2018-01-21T07:15:13.861Z,1.00
2018-01-21T07:17:40.896Z,1.00
2018-01-21T07:20:07.906Z,1.00
2018-01-21T07:22:34.184Z,1.00
2018-01-21T07:25:01.215Z,1.10
2018-01-21T07:27:27.491Z,1.10
2018-01-21T07:29:53.767Z,1.10
2018-01-21T07:32:20.048Z,1.10
2018-01-21T07:34:46.314Z,1.00
2018-01-21T07:37:12.588Z,1.00
2018-01-21T07:39:38.868Z,1.00
2018-01-21T07:42:05.158Z,1.10
2018-01-21T07:44:31.427Z,1.20
2018-01-21T07:46:57.714Z,1.10
2018-01-21T07:49:23.988Z,1.10
2018-01-21T07:51:50.275Z,1.10
2018-01-21T07:54:16.551Z,1.10
2018-01-21T07:56:42.867Z,1.20
2018-01-21T07:59:09.163Z,1.10
2018-01-21T08:01:35.497Z,1.30
2018-01-21T08:04:01.801Z,1.20
2018-01-21T08:06:28.097Z,1.30
2018-01-21T08:08:54.416Z,1.30
2018-01-21T08:11:22.197Z,1.30
2018-01-21T08:13:48.537Z,1.30
2018-01-21T08:16:15.566Z,1.40
2018-01-21T08:18:41.859Z,1.40
2018-01-21T08:21:08.135Z,1.50
2018-01-21T08:23:34.423Z,1.50
2018-01-21T08:26:00.718Z,1.60
2018-01-21T08:28:27.080Z,1.50
2018-01-21T08:30:53.578Z,1.50
2018-01-21T08:33:20.614Z,1.40
2018-01-21T08:35:53.854Z,1.50
2018-01-21T08:38:26.204Z,1.50
2018-01-21T08:41:10.438Z,1.50
2018-01-21T08:43:36.737Z,1.60
2018-01-21T08:46:03.050Z,1.50
2018-01-21T08:48:29.429Z,1.70
2018-01-21T08:50:55.800Z,1.70
2018-01-21T08:53:22.141Z,1.70
2018-01-21T08:55:48.426Z,1.70
2018-01-21T08:58:14.723Z,1.80
2018-01-21T09:00:41.020Z,1.80
2018-01-21T09:03:07.308Z,1.80
2018-01-21T09:05:33.631Z,1.80
2018-01-21T09:08:00.664Z,1.80
2018-01-21T09:10:26.970Z,1.70
2018-01-21T09:12:53.257Z,1.80
2018-01-21T09:15:19.559Z,1.90
2018-01-21T09:17:45.836Z,2.00
2018-01-21T09:20:12.163Z,2.10
2018-01-21T09:22:38.506Z,2.00
2018-01-21T09:25:04.808Z,2.00
2018-01-21T09:27:31.486Z,2.00
2018-01-21T09:29:57.927Z,2.10
2018-01-21T09:32:24.980Z,2.00
2018-01-21T09:34:51.288Z,2.00
2018-01-21T09:37:17.562Z,2.00
2018-01-21T09:39:43.873Z,1.90
2018-01-21T09:42:10.158Z,1.90
2018-01-21T09:44:36.469Z,2.00
2018-01-21T09:47:02.898Z,2.00
2018-01-21T09:49:30.015Z,2.10
2018-01-21T09:51:56.361Z,2.10
2018-01-21T09:54:23.403Z,2.20
2018-01-21T09:56:49.722Z,2.10
2018-01-21T09:59:16.033Z,2.10
2018-01-21T10:01:43.097Z,2.10
2018-01-21T10:04:09.393Z,2.00
2018-01-21T10:06:35.708Z,2.00
2018-01-21T10:09:02.017Z,2.00
2018-01-21T10:11:28.316Z,2.10
2018-01-21T10:13:54.591Z,2.20
2018-01-21T10:16:20.899Z,2.20
2018-01-21T10:18:47.939Z,2.50
2018-01-21T10:21:14.983Z,2.60
2018-01-21T10:23:42.021Z,2.60
2018-01-21T10:26:08.314Z,2.50
2018-01-21T10:28:34.591Z,2.50
2018-01-21T10:31:00.878Z,2.50
2018-01-21T10:33:27.163Z,2.50
2018-01-21T10:35:54.206Z,2.70
2018-01-21T10:38:21.231Z,2.70
2018-01-21T10:40:47.521Z,2.60
2018-01-21T10:43:13.824Z,2.70
2018-01-21T10:45:40.856Z,2.80
2018-01-21T10:48:07.185Z,2.70
2018-01-21T10:50:34.219Z,2.90
2018-01-21T10:53:00.518Z,2.80
2018-01-21T10:55:26.818Z,2.70
2018-01-21T10:57:53.137Z,2.60
2018-01-21T11:00:19.429Z,2.80
2018-01-21T11:02:47.213Z,2.80
2018-01-21T11:05:14.259Z,2.90
2018-01-21T11:07:41.296Z,2.90
2018-01-21T11:10:07.588Z,2.90
2018-01-21T11:12:33.893Z,3.10
2018-01-21T11:15:00.210Z,3.00
2018-01-21T11:17:27.280Z,2.90
2018-01-21T11:19:53.582Z,2.90
2018-01-21T11:22:20.621Z,3.30
2018-01-21T11:24:47.643Z,3.00
2018-01-21T11:27:13.949Z,3.00
2018-01-21T11:29:40.283Z,3.20
2018-01-21T11:32:06.545Z,3.30
2018-01-21T11:34:33.608Z,3.10
2018-01-21T11:37:00.653Z,3.10
2018-01-21T11:39:26.988Z,3.10
2018-01-21T11:41:54.032Z,3.40
2018-01-21T11:44:21.250Z,3.30
2018-01-21T11:46:47.556Z,3.20
2018-01-21T11:49:13.852Z,3.10
2018-01-21T11:51:40.147Z,3.10
2018-01-21T11:54:06.565Z,3.20
2018-01-21T11:56:32.838Z,3.30
2018-01-21T11:58:59.941Z,3.70
2018-01-21T12:01:26.357Z,3.60
2018-01-21T12:03:52.675Z,3.70
2018-01-21T12:06:18.973Z,3.70
2018-01-21T12:08:46.016Z,3.90
2018-01-21T12:11:12.338Z,3.80
2018-01-21T12:13:38.627Z,3.60
2018-01-21T12:16:04.915Z,3.70
2018-01-21T12:18:31.989Z,4.00
2018-01-21T12:20:58.326Z,4.00
2018-01-21T12:23:24.603Z,4.00
2018-01-21T12:25:50.938Z,4.20
2018-01-21T12:28:17.969Z,4.20
2018-01-21T12:30:44.327Z,4.10
2018-01-21T12:33:11.370Z,4.30
2018-01-21T12:35:38.458Z,4.40
2018-01-21T12:38:04.766Z,4.30
2018-01-21T12:40:31.813Z,4.30
2018-01-21T12:42:58.167Z,4.30
2018-01-21T12:45:24.518Z,4.40
2018-01-21T12:47:50.805Z,4.40
2018-01-21T12:50:17.854Z,4.60
2018-01-21T12:52:44.165Z,4.60
2018-01-21T12:55:11.233Z,4.90
2018-01-21T12:57:38.263Z,4.90
2018-01-21T13:00:05.296Z,5.10
2018-01-21T13:02:32.345Z,5.30
2018-01-21T13:04:59.442Z,5.70
2018-01-21T13:07:25.788Z,5.60
2018-01-21T13:09:52.116Z,6.00
2018-01-21T13:12:18.457Z,6.50
2018-01-21T13:14:44.829Z,6.80
2018-01-21T13:17:11.868Z,6.60
2018-01-21T13:19:38.236Z,6.50
2018-01-21T13:22:04.563Z,6.30
2018-01-21T13:24:30.844Z,6.10
2018-01-21T13:26:57.173Z,5.90
2018-01-21T13:29:23.462Z,5.80
2018-01-21T13:31:49.810Z,5.60
2018-01-21T13:34:16.136Z,5.40
2018-01-21T13:36:42.410Z,5.30
2018-01-21T13:39:09.439Z,5.30
2018-01-21T13:41:35.739Z,5.20
2018-01-21T13:44:02.027Z,5.90
2018-01-21T13:46:29.065Z,7.80
2018-01-21T13:48:56.083Z,7.90
2018-01-21T13:51:23.112Z,8.20
2018-01-21T13:53:49.420Z,8.20
2018-01-21T13:56:15.711Z,8.30
2018-01-21T13:58:42.755Z,8.30
2018-01-21T14:01:09.046Z,8.20
2018-01-21T14:03:35.360Z,8.30
2018-01-21T14:06:01.636Z,8.20
2018-01-21T14:08:28.020Z,8.10
2018-01-21T14:10:54.360Z,8.30
2018-01-21T14:13:20.656Z,8.20
2018-01-21T14:15:47.743Z,7.70
2018-01-21T14:18:14.048Z,7.70
2018-01-21T14:20:40.344Z,8.00
2018-01-21T14:23:06.748Z,8.00
2018-01-21T14:25:33.079Z,8.00
2018-01-21T14:27:59.418Z,7.20
2018-01-21T14:30:25.768Z,6.20
2018-01-21T14:32:52.830Z,4.90
2018-01-21T14:35:19.864Z,4.50
2018-01-21T14:37:46.893Z,4.50
2018-01-21T14:40:13.242Z,4.40
2018-01-21T14:42:40.317Z,3.70
2018-01-21T14:45:06.677Z,3.70
2018-01-21T14:47:33.027Z,3.40
2018-01-21T14:49:59.326Z,3.20
2018-01-21T14:52:25.672Z,3.20
2018-01-21T14:54:51.997Z,3.00
2018-01-21T14:57:18.268Z,3.30
2018-01-21T14:59:44.557Z,3.50
2018-01-21T15:02:10.829Z,3.60
2018-01-21T15:04:37.939Z,3.50
2018-01-21T15:07:04.217Z,3.50
2018-01-21T15:09:31.255Z,3.00
2018-01-21T15:11:57.556Z,3.00
2018-01-21T15:14:23.843Z,3.10
2018-01-21T15:16:50.144Z,3.30
2018-01-21T15:19:16.432Z,3.10
2018-01-21T15:21:42.727Z,2.80
2018-01-21T15:24:09.129Z,3.10
2018-01-21T15:26:35.438Z,3.00
2018-01-21T15:29:01.833Z,2.80
2018-01-21T15:31:28.131Z,2.70
2018-01-21T15:33:55.144Z,2.60
2018-01-21T15:36:21.858Z,2.60
2018-01-21T15:38:48.197Z,2.50
2018-01-21T15:41:14.492Z,2.50
2018-01-21T15:43:40.820Z,2.50
2018-01-21T15:46:07.906Z,2.50
2018-01-21T15:48:34.180Z,2.50
2018-01-21T15:51:01.215Z,2.30
2018-01-21T15:53:27.529Z,2.20
2018-01-21T15:55:54.093Z,2.30
2018-01-21T15:58:21.125Z,2.20
2018-01-21T16:00:47.416Z,2.20
2018-01-21T16:03:13.712Z,2.30
2018-01-21T16:05:40.736Z,2.20
2018-01-21T16:08:07.828Z,2.10
2018-01-21T16:10:34.504Z,2.10
2018-01-21T16:13:01.568Z,2.20
2018-01-21T16:15:27.856Z,2.10
2018-01-21T16:17:54.218Z,2.20
2018-01-21T16:20:20.519Z,2.20
2018-01-21T16:22:46.817Z,2.20
2018-01-21T16:25:14.194Z,2.30
2018-01-21T16:27:40.518Z,2.30
2018-01-21T16:30:06.841Z,2.00
2018-01-21T16:32:33.185Z,2.00
2018-01-21T16:34:59.577Z,2.00
2018-01-21T16:37:38.344Z,2.00
2018-01-21T16:40:05.611Z,2.00
2018-01-21T16:42:31.943Z,2.00
2018-01-21T16:44:58.274Z,1.80
2018-01-21T16:47:24.572Z,1.80
2018-01-21T16:49:50.876Z,2.00
2018-01-21T16:52:17.895Z,1.90
2018-01-21T16:54:44.220Z,1.90
2018-01-21T16:57:10.517Z,2.10
2018-01-21T16:59:36.807Z,2.00
2018-01-21T17:02:03.881Z,1.90
2018-01-21T17:04:30.329Z,1.90
2018-01-21T17:06:56.615Z,1.60
2018-01-21T17:09:23.661Z,1.80
2018-01-21T17:11:50.741Z,1.70
2018-01-21T17:14:17.025Z,1.60
2018-01-21T17:16:43.355Z,1.70
2018-01-21T17:19:09.656Z,1.70
2018-01-21T17:21:35.983Z,1.70
2018-01-21T17:24:02.305Z,1.60
2018-01-21T17:26:28.761Z,1.70
2018-01-21T17:28:55.077Z,1.70
2018-01-21T17:31:21.417Z,1.70
2018-01-21T17:33:47.838Z,1.70
2018-01-21T17:36:14.166Z,1.70
2018-01-21T17:38:40.461Z,1.60
2018-01-21T17:41:06.834Z,1.60
2018-01-21T17:43:33.152Z,1.70
2018-01-21T17:45:59.489Z,1.80
2018-01-21T17:48:25.866Z,1.60
2018-01-21T17:50:52.322Z,1.60
2018-01-21T17:53:19.403Z,1.50
2018-01-21T17:55:45.723Z,1.40
2018-01-21T17:58:12.484Z,1.40
2018-01-21T18:00:39.651Z,1.60
2018-01-21T18:03:05.945Z,1.50
2018-01-21T18:05:32.358Z,1.60
2018-01-21T18:07:58.657Z,1.40
2018-01-21T18:10:25.710Z,1.40
2018-01-21T18:12:52.749Z,1.50
2018-01-21T18:15:20.599Z,1.50
2018-01-21T18:17:47.665Z,1.50
2018-01-21T18:20:13.996Z,1.50
2018-01-21T18:22:41.097Z,1.40
2018-01-21T18:25:07.499Z,1.40
2018-01-21T18:27:33.848Z,1.40
2018-01-21T18:30:00.313Z,1.20
2018-01-21T18:32:26.671Z,1.30
2018-01-21T18:34:53.756Z,1.30
2018-01-21T18:37:20.545Z,1.30
2018-01-21T18:39:46.888Z,1.30
2018-01-21T18:42:14.220Z,1.20
2018-01-21T18:44:40.718Z,1.20
2018-01-21T18:47:07.294Z,1.20
2018-01-21T18:49:33.827Z,1.40
2018-01-21T18:52:00.170Z,1.60
2018-01-21T18:54:27.247Z,1.60
2018-01-21T18:56:54.443Z,1.40
2018-01-21T18:59:20.789Z,1.30
2018-01-21T19:01:47.478Z,1.20
2018-01-21T19:04:14.589Z,1.10
2018-01-21T19:06:42.010Z,1.00
2018-01-21T19:09:08.668Z,0.90
2018-01-21T19:11:35.417Z,0.90
2018-01-21T19:14:02.401Z,0.90
2018-01-21T19:16:29.463Z,0.90
2018-01-21T19:18:55.835Z,0.90
2018-01-21T19:21:22.154Z,1.00
2018-01-21T19:23:48.516Z,0.80
2018-01-21T19:26:14.875Z,1.00
2018-01-21T19:28:41.219Z,0.80
2018-01-21T19:31:07.539Z,0.70
2018-01-21T19:33:33.839Z,0.60
2018-01-21T19:36:00.912Z,0.80
2018-01-21T19:38:27.290Z,0.70
2018-01-21T19:41:14.677Z,0.80
2018-01-21T19:43:41.037Z,0.80
2018-01-21T19:46:07.482Z,0.80
2018-01-21T19:48:35.362Z,0.70
2018-01-21T19:51:01.771Z,0.60
2018-01-21T19:53:28.124Z,0.70
2018-01-21T19:55:54.682Z,0.60
2018-01-21T19:58:21.997Z,0.60
2018-01-21T20:00:49.134Z,0.60
2018-01-21T20:03:15.884Z,0.60
2018-01-21T20:05:42.185Z,0.50
2018-01-21T20:08:08.523Z,0.50
2018-01-21T20:10:34.980Z,0.50
2018-01-21T20:13:10.147Z,0.40
2018-01-21T20:15:36.613Z,0.50
2018-01-21T20:18:02.998Z,0.60
2018-01-21T20:20:29.810Z,0.50
2018-01-21T20:22:56.193Z,0.60
2018-01-21T20:25:23.230Z,0.60
2018-01-21T20:27:50.866Z,0.60
2018-01-21T20:30:17.203Z,0.50
2018-01-21T20:32:43.487Z,0.60
2018-01-21T20:35:09.836Z,0.70
2018-01-21T20:37:36.149Z,0.70
2018-01-21T20:40:03.296Z,0.60
2018-01-21T20:42:29.635Z,0.60
2018-01-21T20:44:56.003Z,0.80
2018-01-21T20:47:22.383Z,0.60
2018-01-21T20:49:48.748Z,0.60
2018-01-21T20:52:21.109Z,0.70
2018-01-21T20:54:47.521Z,0.80
2018-01-21T20:57:14.096Z,0.80
2018-01-21T20:59:40.459Z,0.80
2018-01-21T21:02:07.512Z,0.70
2018-01-21T21:04:34.580Z,0.70
2018-01-21T21:07:00.921Z,0.60
2018-01-21T21:09:27.227Z,0.70
2018-01-21T21:11:53.565Z,0.70
2018-01-21T21:14:19.927Z,0.70
2018-01-21T21:16:46.266Z,0.70
2018-01-21T21:19:12.650Z,0.60
2018-01-21T21:21:39.708Z,0.70
2018-01-21T21:24:06.878Z,0.70
2018-01-21T21:26:33.256Z,0.70
2018-01-21T21:28:59.619Z,0.60
2018-01-21T21:31:26.042Z,0.60
2018-01-21T21:33:52.447Z,0.60
2018-01-21T21:36:19.543Z,0.60
2018-01-21T21:38:45.888Z,0.60
2018-01-21T21:41:12.403Z,0.50
2018-01-21T21:43:38.757Z,0.60
2018-01-21T21:46:05.117Z,0.60
2018-01-21T21:48:31.408Z,0.40
2018-01-21T21:50:57.783Z,0.50
2018-01-21T21:53:24.137Z,0.50
2018-01-21T21:55:51.262Z,0.40
2018-01-21T21:58:17.569Z,0.30
2018-01-21T22:00:43.919Z,0.50
2018-01-21T22:03:10.302Z,0.50
2018-01-21T22:05:36.654Z,0.40
2018-01-21T22:08:03.017Z,0.40
2018-01-21T22:10:29.340Z,0.50
2018-01-21T22:12:55.627Z,0.50
2018-01-21T22:15:22.009Z,0.50
2018-01-21T22:17:48.403Z,0.50
2018-01-21T22:20:14.693Z,0.50
2018-01-21T22:22:41.766Z,0.50
2018-01-21T22:25:08.114Z,0.40
2018-01-21T22:27:34.464Z,0.50
2018-01-21T22:30:01.064Z,0.30
2018-01-21T22:32:27.436Z,0.50
2018-01-21T22:34:53.766Z,0.50
2018-01-21T22:37:20.111Z,0.40
2018-01-21T22:39:46.389Z,0.50
2018-01-21T22:42:12.698Z,0.40
2018-01-21T22:44:39.041Z,0.40
2018-01-21T22:47:05.324Z,0.40
2018-01-21T22:49:31.628Z,0.40
2018-01-21T22:51:57.908Z,0.40
2018-01-21T22:54:24.948Z,0.40
2018-01-21T22:56:51.245Z,0.40
2018-01-21T22:59:17.528Z,0.40
2018-01-21T23:01:43.828Z,0.40
2018-01-21T23:04:10.880Z,0.50
2018-01-21T23:06:37.142Z,0.40
2018-01-21T23:09:03.468Z,0.70
2018-01-21T23:11:29.987Z,0.50
2018-01-21T23:13:57.032Z,0.40
2018-01-21T23:16:23.324Z,0.30
2018-01-21T23:18:49.620Z,0.40
2018-01-21T23:21:15.905Z,0.80
2018-01-21T23:23:42.942Z,0.50
2018-01-21T23:26:09.228Z,0.40
2018-01-21T23:28:35.520Z,0.50
2018-01-21T23:31:02.556Z,0.40
2018-01-21T23:33:28.853Z,0.40
2018-01-21T23:35:55.192Z,0.30
2018-01-21T23:38:21.467Z,0.20
2018-01-21T23:40:48.504Z,0.20
2018-01-21T23:43:15.538Z,0.20
2018-01-21T23:45:41.847Z,0.20
2018-01-21T23:48:08.120Z,0.30
2018-01-21T23:50:35.152Z,0.30
2018-01-21T23:53:02.195Z,0.30
2018-01-21T23:55:28.513Z,0.20
2018-01-21T23:57:54.783Z,0.20
